createdAt,value
2023-03-06T00:00:21.784Z,6.80
2023-03-06T00:02:48.582Z,6.57
2023-03-06T00:05:16.120Z,7.00
2023-03-06T00:07:43.882Z,7.13
2023-03-06T00:10:16.279Z,7.10
2023-03-06T00:12:42.898Z,6.97
2023-03-06T00:15:10.744Z,6.25
2023-03-06T00:17:37.873Z,8.60
2023-03-06T00:20:05.892Z,7.53
2023-03-06T00:22:32.982Z,7.13
2023-03-06T00:24:59.785Z,6.63
2023-03-06T00:27:26.441Z,6.75
2023-03-06T00:29:57.656Z,7.55
2023-03-06T00:32:25.368Z,6.97
2023-03-06T00:34:53.620Z,5.93
2023-03-06T00:37:21.858Z,5.72
2023-03-06T00:39:49.618Z,6.53
2023-03-06T00:42:18.015Z,5.82
2023-03-06T00:44:45.249Z,6.50
2023-03-06T00:47:13.087Z,6.18
2023-03-06T00:49:39.652Z,7.15
2023-03-06T00:52:06.251Z,6.20
2023-03-06T00:54:32.845Z,6.30
2023-03-06T00:56:59.422Z,5.47
2023-03-06T00:59:27.605Z,6.72
2023-03-06T01:01:54.818Z,6.45
2023-03-06T01:04:21.632Z,6.75
2023-03-06T01:06:48.901Z,7.57
2023-03-06T01:09:15.554Z,5.93
2023-03-06T01:11:42.121Z,5.68
2023-03-06T01:14:08.760Z,6.82
2023-03-06T01:16:35.387Z,5.55
2023-03-06T01:19:02.146Z,6.07
2023-03-06T01:21:28.878Z,6.63
2023-03-06T01:23:55.494Z,6.13
2023-03-06T01:26:22.115Z,6.50
2023-03-06T01:28:48.771Z,6.18
2023-03-06T01:31:15.413Z,5.88
2023-03-06T01:33:42.026Z,5.90
2023-03-06T01:36:12.224Z,5.57
2023-03-06T01:38:39.173Z,5.30
2023-03-06T01:41:06.693Z,5.43
2023-03-06T01:43:36.700Z,5.90
2023-03-06T01:46:22.769Z,5.53
2023-03-06T01:48:53.670Z,6.00
2023-03-06T01:51:20.824Z,6.28
2023-03-06T01:53:50.496Z,6.03
2023-03-06T01:56:17.213Z,6.38
2023-03-06T01:58:44.780Z,5.63
2023-03-06T02:01:13.464Z,5.55
2023-03-06T02:03:42.284Z,5.72
2023-03-06T02:06:09.003Z,5.82
2023-03-06T02:08:35.788Z,5.18
2023-03-06T02:11:07.901Z,5.72
2023-03-06T02:13:36.396Z,5.72
2023-03-06T02:16:03.442Z,5.50
2023-03-06T02:18:31.758Z,5.55
2023-03-06T02:21:02.392Z,5.47
2023-03-06T02:23:34.028Z,5.90
2023-03-06T02:26:02.230Z,5.97
2023-03-06T02:28:29.003Z,6.22
2023-03-06T02:30:56.082Z,5.13
2023-03-06T02:33:27.132Z,5.82
2023-03-06T02:35:58.626Z,6.40
2023-03-06T02:38:29.250Z,5.93
2023-03-06T02:40:58.132Z,6.05
2023-03-06T02:43:29.522Z,5.55
2023-03-06T02:45:56.205Z,6.20
2023-03-06T02:48:22.861Z,5.63
2023-03-06T02:50:49.534Z,5.45
2023-03-06T02:53:18.122Z,5.90
2023-03-06T02:55:45.458Z,5.82
2023-03-06T02:58:12.650Z,5.90
2023-03-06T03:00:40.294Z,5.82
2023-03-06T03:03:07.557Z,6.68
2023-03-06T03:05:34.196Z,6.95
2023-03-06T03:08:01.064Z,5.57
2023-03-06T03:10:27.691Z,6.00
2023-03-06T03:12:54.300Z,6.05
2023-03-06T03:15:24.149Z,5.93
2023-03-06T03:17:50.974Z,6.65
2023-03-06T03:20:20.195Z,6.80
2023-03-06T03:22:52.316Z,6.50
2023-03-06T03:25:21.789Z,6.72
2023-03-06T03:27:48.717Z,7.07
2023-03-06T03:30:15.974Z,7.50
2023-03-06T03:32:42.578Z,7.47
2023-03-06T03:35:11.181Z,7.15
2023-03-06T03:37:38.135Z,7.03
2023-03-06T03:40:06.850Z,7.07
2023-03-06T03:42:34.552Z,6.57
2023-03-06T03:45:01.134Z,6.47
2023-03-06T03:47:27.809Z,6.22
2023-03-06T03:49:54.385Z,6.57
2023-03-06T03:52:21.076Z,6.80
2023-03-06T03:54:47.662Z,7.68
2023-03-06T03:57:14.257Z,7.25
2023-03-06T03:59:40.889Z,7.15
2023-03-06T04:02:07.528Z,7.05
2023-03-06T04:04:34.183Z,7.32
2023-03-06T04:07:00.842Z,6.38
2023-03-06T04:09:27.625Z,7.07
2023-03-06T04:11:54.296Z,6.43
2023-03-06T04:14:20.914Z,7.50
2023-03-06T04:16:47.607Z,7.78
2023-03-06T04:19:14.225Z,7.88
2023-03-06T04:21:40.802Z,7.57
2023-03-06T04:24:07.966Z,7.28
2023-03-06T04:26:37.837Z,6.85
2023-03-06T04:29:04.458Z,6.63
2023-03-06T04:31:31.138Z,6.82
2023-03-06T04:33:57.756Z,8.48
2023-03-06T04:36:30.884Z,7.80
2023-03-06T04:38:58.067Z,7.88
2023-03-06T04:41:24.747Z,6.68
2023-03-06T04:43:51.843Z,7.38
2023-03-06T04:46:18.540Z,6.85
2023-03-06T04:48:45.184Z,7.32
2023-03-06T04:51:13.582Z,6.68
2023-03-06T04:53:40.307Z,6.47
2023-03-06T04:56:07.304Z,6.43
2023-03-06T04:58:33.929Z,6.20
2023-03-06T05:01:00.600Z,6.65
2023-03-06T05:03:27.358Z,5.90
2023-03-06T05:05:53.978Z,7.03
2023-03-06T05:08:21.190Z,6.75
2023-03-06T05:10:54.817Z,5.70
2023-03-06T05:13:21.562Z,6.70
2023-03-06T05:15:48.174Z,5.35
2023-03-06T05:18:14.805Z,6.95
2023-03-06T05:20:41.404Z,6.18
2023-03-06T05:23:08.081Z,7.03
2023-03-06T05:25:34.695Z,6.57
2023-03-06T05:28:01.314Z,7.40
2023-03-06T05:30:27.954Z,7.28
2023-03-06T05:32:54.640Z,7.43
2023-03-06T05:35:23.328Z,8.05
2023-03-06T05:37:50.294Z,6.97
2023-03-06T05:40:18.176Z,7.05
2023-03-06T05:42:45.268Z,7.47
2023-03-06T05:45:12.120Z,6.55
2023-03-06T05:47:38.693Z,7.60
2023-03-06T05:50:08.040Z,7.05
2023-03-06T05:52:34.657Z,7.15
2023-03-06T05:55:01.293Z,8.43
2023-03-06T05:57:27.914Z,8.23
2023-03-06T05:59:54.650Z,8.65
2023-03-06T06:02:21.455Z,8.32
2023-03-06T06:04:48.286Z,8.15
2023-03-06T06:07:17.032Z,7.82
2023-03-06T06:09:45.592Z,9.00
2023-03-06T06:12:13.291Z,8.48
2023-03-06T06:14:39.998Z,8.30
2023-03-06T06:17:07.105Z,7.32
2023-03-06T06:19:33.767Z,7.47
2023-03-06T06:22:02.649Z,8.38
2023-03-06T06:24:29.853Z,8.32
2023-03-06T06:26:58.129Z,8.85
2023-03-06T06:29:26.122Z,6.85
2023-03-06T06:31:53.134Z,7.93
2023-03-06T06:34:20.343Z,7.82
2023-03-06T06:36:47.447Z,7.78
2023-03-06T06:39:16.515Z,9.63
2023-03-06T06:41:57.575Z,8.80
2023-03-06T06:44:29.124Z,8.63
2023-03-06T06:49:42.319Z,7.72
2023-03-06T06:52:09.100Z,7.57
2023-03-06T06:54:35.725Z,8.32
2023-03-06T06:57:02.316Z,8.23
2023-03-06T06:59:28.905Z,7.75
2023-03-06T07:01:55.475Z,7.63
2023-03-06T07:04:22.244Z,6.93
2023-03-06T07:06:48.835Z,6.85
2023-03-06T07:09:15.401Z,7.32
2023-03-06T07:11:42.003Z,7.30
2023-03-06T07:14:09.024Z,8.18
2023-03-06T07:16:38.859Z,7.95
2023-03-06T07:19:06.304Z,7.97
2023-03-06T07:21:33.250Z,8.32
2023-03-06T07:24:00.816Z,7.95
2023-03-06T07:26:28.420Z,7.95
2023-03-06T07:28:55.438Z,8.32
2023-03-06T07:31:24.740Z,8.25
2023-03-06T07:33:52.689Z,8.48
2023-03-06T07:36:20.484Z,8.90
2023-03-06T07:38:47.245Z,9.55
2023-03-06T07:41:16.379Z,10.00
2023-03-06T07:43:44.992Z,10.98
2023-03-06T07:46:13.135Z,10.07
2023-03-06T07:48:40.525Z,9.68
2023-03-06T07:51:16.049Z,10.07
2023-03-06T07:53:42.668Z,10.05
2023-03-06T07:56:11.089Z,8.95
2023-03-06T07:58:39.468Z,9.80
2023-03-06T08:01:10.442Z,10.32
2023-03-06T08:03:37.615Z,9.48
2023-03-06T08:06:07.593Z,9.73
2023-03-06T08:08:35.535Z,9.43
2023-03-06T08:11:02.329Z,10.15
2023-03-06T08:13:28.982Z,9.60
2023-03-06T08:15:56.740Z,10.25
2023-03-06T08:18:23.431Z,10.07
2023-03-06T08:20:50.083Z,11.20
2023-03-06T08:23:16.692Z,11.00
2023-03-06T08:25:43.298Z,10.80
2023-03-06T08:28:13.098Z,12.05
2023-03-06T08:30:39.709Z,10.75
2023-03-06T08:33:06.298Z,10.65
2023-03-06T08:35:32.944Z,11.48
2023-03-06T08:37:59.585Z,10.77
2023-03-06T08:40:30.398Z,11.02
2023-03-06T08:42:56.990Z,11.10
2023-03-06T08:45:23.754Z,10.95
2023-03-06T08:47:50.369Z,11.95
2023-03-06T08:50:17.228Z,10.27
2023-03-06T08:52:43.835Z,11.05
2023-03-06T08:55:10.820Z,11.13
2023-03-06T08:57:37.411Z,10.40
2023-03-06T09:00:08.872Z,10.13
2023-03-06T09:02:35.665Z,10.75
2023-03-06T09:05:05.841Z,10.75
2023-03-06T09:07:32.453Z,10.50
2023-03-06T09:09:59.235Z,10.80
2023-03-06T09:12:27.241Z,11.63
2023-03-06T09:14:54.729Z,11.10
2023-03-06T09:17:21.361Z,11.93
2023-03-06T09:19:48.005Z,10.15
2023-03-06T09:22:14.582Z,11.57
2023-03-06T09:24:41.542Z,11.38
2023-03-06T09:27:08.144Z,10.93
2023-03-06T09:29:34.718Z,11.82
2023-03-06T09:32:01.324Z,11.40
2023-03-06T09:34:27.998Z,12.65
2023-03-06T09:36:57.200Z,11.80
2023-03-06T09:39:26.174Z,11.15
2023-03-06T09:41:53.906Z,10.88
2023-03-06T09:44:26.058Z,10.77
2023-03-06T09:47:19.655Z,9.90
2023-03-06T09:50:15.756Z,11.80
2023-03-06T09:53:15.396Z,10.02
2023-03-06T09:55:44.203Z,10.43
2023-03-06T09:58:21.131Z,10.32
2023-03-06T10:01:20.464Z,10.23
2023-03-06T10:03:52.939Z,10.70
2023-03-06T10:06:39.611Z,10.07
2023-03-06T10:09:13.548Z,11.57
2023-03-06T10:12:06.665Z,11.45
2023-03-06T10:14:48.462Z,10.40
2023-03-06T10:17:22.535Z,10.93
2023-03-06T10:19:49.840Z,10.18
2023-03-06T10:22:30.756Z,10.70
2023-03-06T10:25:28.104Z,11.82
2023-03-06T10:30:23.185Z,10.52
2023-03-06T10:33:07.534Z,10.38
2023-03-06T10:35:51.721Z,11.43
2023-03-06T10:38:37.839Z,12.15
2023-03-06T10:41:16.942Z,12.13
2023-03-06T10:44:05.506Z,10.95
2023-03-06T10:46:36.414Z,11.20
2023-03-06T10:49:06.120Z,12.23
2023-03-06T10:51:34.272Z,10.48
2023-03-06T10:54:04.428Z,11.40
2023-03-06T10:56:35.099Z,11.00
2023-03-06T10:59:18.082Z,11.63
2023-03-06T11:01:47.616Z,11.30
2023-03-06T11:04:15.205Z,11.70
2023-03-06T11:06:42.076Z,11.35
2023-03-06T11:09:25.808Z,12.52
2023-03-06T11:12:08.894Z,10.23
2023-03-06T11:14:35.486Z,11.18
2023-03-06T11:17:05.359Z,11.95
2023-03-06T11:19:32.983Z,11.90
2023-03-06T11:22:02.801Z,12.43
2023-03-06T11:24:37.467Z,11.38
2023-03-06T11:27:22.254Z,12.07
2023-03-06T11:29:51.699Z,12.32
2023-03-06T11:32:22.544Z,12.93
2023-03-06T11:34:58.065Z,11.98
2023-03-06T11:37:33.735Z,11.82
2023-03-06T11:40:01.359Z,12.50
2023-03-06T11:42:38.245Z,12.45
2023-03-06T11:45:24.953Z,12.35
2023-03-06T11:48:20.105Z,11.75
2023-03-06T11:50:52.565Z,12.18
2023-03-06T11:53:23.118Z,13.20
2023-03-06T11:56:14.880Z,12.23
2023-03-06T11:58:58.147Z,13.05
2023-03-06T12:01:36.802Z,12.43
2023-03-06T12:04:23.357Z,12.35
2023-03-06T12:06:57.859Z,13.38
2023-03-06T12:09:36.090Z,13.23
2023-03-06T12:12:14.808Z,13.07
2023-03-06T12:14:56.787Z,12.38
2023-03-06T12:18:03.177Z,12.63
2023-03-06T12:20:31.798Z,12.68
2023-03-06T12:23:26.724Z,11.18
2023-03-06T12:26:21.184Z,11.50
2023-03-06T12:29:07.385Z,11.82
2023-03-06T12:32:09.344Z,11.75
2023-03-06T12:35:05.879Z,11.10
2023-03-06T12:38:02.339Z,11.75
2023-03-06T12:40:58.571Z,12.02
2023-03-06T12:43:40.351Z,12.35
2023-03-06T12:46:16.032Z,12.07
2023-03-06T12:48:48.793Z,12.18
2023-03-06T12:51:20.457Z,13.30
2023-03-06T12:53:49.910Z,12.98
2023-03-06T12:56:18.450Z,12.18
2023-03-06T12:58:51.010Z,12.18
2023-03-06T13:01:38.247Z,12.93
2023-03-06T13:04:35.522Z,13.43
2023-03-06T13:07:17.305Z,12.50
2023-03-06T13:09:59.149Z,13.25
2023-03-06T13:12:56.344Z,12.77
2023-03-06T13:15:41.286Z,12.77
2023-03-06T13:18:23.044Z,12.18
2023-03-06T13:20:51.679Z,12.45
2023-03-06T13:23:33.584Z,13.00
2023-03-06T13:26:08.609Z,12.85
2023-03-06T13:28:52.206Z,13.70
2023-03-06T13:31:34.156Z,12.23
2023-03-06T13:34:31.413Z,11.75
2023-03-06T13:37:33.368Z,13.15
2023-03-06T13:39:59.923Z,12.95
2023-03-06T13:42:28.978Z,12.27
2023-03-06T13:44:58.023Z,12.68
2023-03-06T13:47:26.622Z,11.90
2023-03-06T13:49:53.283Z,11.82
2023-03-06T13:52:38.221Z,12.18
2023-03-06T13:55:22.900Z,11.57
2023-03-06T13:57:59.992Z,13.02
2023-03-06T14:00:43.130Z,12.10
2023-03-06T14:03:10.781Z,12.35
2023-03-06T14:05:47.758Z,13.75
2023-03-06T14:08:19.368Z,13.45
2023-03-06T14:10:49.025Z,13.20
2023-03-06T14:13:23.656Z,12.63
2023-03-06T14:15:52.816Z,11.93
2023-03-06T14:18:23.781Z,11.82
2023-03-06T14:21:11.792Z,12.85
2023-03-06T14:23:44.918Z,12.30
2023-03-06T14:26:15.579Z,12.73
2023-03-06T14:28:45.258Z,12.75
2023-03-06T14:31:17.859Z,13.27
2023-03-06T14:33:54.706Z,12.32
2023-03-06T14:36:25.627Z,12.57
2023-03-06T14:38:59.285Z,12.95
2023-03-06T14:41:29.408Z,14.68
2023-03-06T14:44:20.534Z,12.45
2023-03-06T14:46:49.927Z,11.75
2023-03-06T14:49:19.047Z,12.93
2023-03-06T14:51:50.252Z,12.80
2023-03-06T14:54:26.441Z,13.00
2023-03-06T14:57:01.537Z,13.27
2023-03-06T14:59:31.166Z,13.43
2023-03-06T15:02:01.512Z,13.23
2023-03-06T15:04:36.604Z,13.35
2023-03-06T15:07:08.300Z,12.43
2023-03-06T15:09:37.219Z,14.38
2023-03-06T15:12:08.518Z,13.30
2023-03-06T15:14:38.774Z,13.18
2023-03-06T15:17:32.785Z,14.98
2023-03-06T15:20:00.674Z,14.15
2023-03-06T15:22:33.309Z,13.68
2023-03-06T15:25:16.199Z,14.40
2023-03-06T15:27:49.837Z,14.07
2023-03-06T15:30:26.689Z,14.70
2023-03-06T15:33:09.606Z,14.32
2023-03-06T15:35:38.236Z,13.35
2023-03-06T15:38:24.937Z,12.93
2023-03-06T15:40:57.204Z,14.93
2023-03-06T15:43:23.810Z,15.15
2023-03-06T15:45:53.339Z,14.73
2023-03-06T15:48:20.018Z,15.30
2023-03-06T15:50:46.735Z,15.02
2023-03-06T15:53:13.406Z,14.55
2023-03-06T15:55:40.187Z,14.77
2023-03-06T15:58:06.800Z,15.95
2023-03-06T16:00:36.840Z,17.77
2023-03-06T16:03:04.410Z,15.60
2023-03-06T16:05:31.520Z,13.95
2023-03-06T16:07:58.324Z,13.77
2023-03-06T16:10:29.001Z,13.52
2023-03-06T16:13:03.046Z,15.00
2023-03-06T16:15:33.158Z,14.48
2023-03-06T16:18:00.393Z,13.65
2023-03-06T16:20:28.530Z,14.02
2023-03-06T16:22:56.331Z,13.77
2023-03-06T16:25:25.468Z,14.35
2023-03-06T16:28:01.658Z,15.18
2023-03-06T16:30:34.328Z,14.13
2023-03-06T16:33:01.988Z,14.95
2023-03-06T16:35:28.861Z,14.57
2023-03-06T16:37:55.529Z,14.07
2023-03-06T16:40:25.517Z,13.82
2023-03-06T16:42:54.069Z,14.05
2023-03-06T16:45:23.037Z,13.07
2023-03-06T16:47:49.649Z,14.18
2023-03-06T16:50:33.226Z,14.55
2023-03-06T16:52:59.937Z,14.55
2023-03-06T16:55:27.907Z,14.75
2023-03-06T16:57:54.789Z,14.65
2023-03-06T17:00:24.600Z,14.85
2023-03-06T17:02:52.372Z,15.63
2023-03-06T17:05:19.947Z,15.55
2023-03-06T17:07:46.824Z,14.05
2023-03-06T17:10:16.091Z,14.63
2023-03-06T17:12:43.648Z,14.90
2023-03-06T17:15:11.439Z,14.95
2023-03-06T17:17:38.108Z,15.80
2023-03-06T17:20:08.097Z,16.83
2023-03-06T17:22:35.860Z,15.95
2023-03-06T17:25:03.577Z,14.95
2023-03-06T17:27:30.239Z,16.85
2023-03-06T17:29:57.982Z,15.70
2023-03-06T17:32:24.796Z,16.27
2023-03-06T17:34:51.449Z,15.68
2023-03-06T17:37:18.353Z,15.73
2023-03-06T17:39:45.045Z,15.23
2023-03-06T17:42:11.616Z,13.70
2023-03-06T17:44:38.892Z,14.27
2023-03-06T17:47:05.997Z,13.60
2023-03-06T17:49:32.600Z,14.57
2023-03-06T17:52:02.799Z,14.68
2023-03-06T17:54:30.179Z,13.88
2023-03-06T17:57:01.054Z,16.13
2023-03-06T17:59:28.301Z,16.75
2023-03-06T18:01:57.677Z,17.73
2023-03-06T18:04:24.767Z,19.38
2023-03-06T18:06:51.392Z,18.35
2023-03-06T18:09:18.240Z,20.17
2023-03-06T18:11:45.368Z,20.95
2023-03-06T18:14:12.025Z,21.55
2023-03-06T18:16:38.821Z,20.08
2023-03-06T18:19:05.477Z,18.13
2023-03-06T18:21:32.089Z,15.93
2023-03-06T18:23:58.769Z,15.05
2023-03-06T18:26:28.167Z,16.02
2023-03-06T18:28:58.553Z,16.00
2023-03-06T18:31:31.734Z,16.73
2023-03-06T18:34:02.034Z,16.08
2023-03-06T18:36:31.870Z,16.13
2023-03-06T18:38:59.564Z,14.43
2023-03-06T18:41:26.436Z,15.00
2023-03-06T18:43:55.413Z,15.40
2023-03-06T18:46:23.298Z,15.02
2023-03-06T18:48:50.398Z,14.98
2023-03-06T18:51:17.878Z,14.52
2023-03-06T18:53:44.720Z,14.15
2023-03-06T18:56:17.882Z,14.90
2023-03-06T18:58:45.056Z,15.93
2023-03-06T19:01:12.197Z,14.40
2023-03-06T19:03:38.864Z,15.10
2023-03-06T19:06:07.907Z,15.50
2023-03-06T19:08:35.944Z,15.18
2023-03-06T19:11:05.825Z,15.85
2023-03-06T19:13:32.466Z,14.43
2023-03-06T19:15:59.406Z,14.60
2023-03-06T19:18:30.737Z,16.45
2023-03-06T19:21:17.433Z,18.60
2023-03-06T19:23:44.203Z,19.63
2023-03-06T19:26:12.284Z,19.38
2023-03-06T19:28:41.158Z,18.73
2023-03-06T19:31:10.945Z,18.92
2023-03-06T19:33:40.239Z,16.05
2023-03-06T19:36:10.540Z,15.82
2023-03-06T19:38:38.535Z,15.48
2023-03-06T19:41:06.512Z,15.32
2023-03-06T19:43:33.650Z,15.80
2023-03-06T19:46:01.702Z,18.00
2023-03-06T19:48:32.851Z,16.02
2023-03-06T19:51:04.813Z,16.05
2023-03-06T19:53:33.357Z,17.95
2023-03-06T19:56:09.203Z,16.58
2023-03-06T19:58:37.076Z,15.70
2023-03-06T20:01:06.882Z,16.55
2023-03-06T20:03:34.536Z,16.98
2023-03-06T20:06:03.216Z,15.43
2023-03-06T20:08:30.376Z,16.33
2023-03-06T20:10:57.127Z,14.35
2023-03-06T20:13:24.481Z,15.90
2023-03-06T20:15:52.423Z,15.18
2023-03-06T20:18:19.631Z,14.18
2023-03-06T20:20:57.313Z,14.55
2023-03-06T20:23:24.499Z,16.55
2023-03-06T20:25:51.391Z,15.00
2023-03-06T20:28:18.932Z,16.90
2023-03-06T20:30:49.750Z,15.68
2023-03-06T20:33:17.109Z,16.80
2023-03-06T20:35:44.709Z,16.27
2023-03-06T20:38:12.344Z,16.15
2023-03-06T20:40:41.328Z,16.08
2023-03-06T20:43:09.113Z,16.92
2023-03-06T20:45:36.401Z,16.52
2023-03-06T20:48:03.764Z,16.20
2023-03-06T20:50:31.070Z,16.73
2023-03-06T20:52:59.145Z,17.67
2023-03-06T20:55:25.869Z,17.30
2023-03-06T20:57:53.859Z,16.70
2023-03-06T21:00:21.567Z,17.27
2023-03-06T21:02:48.423Z,16.55
2023-03-06T21:05:15.839Z,17.65
2023-03-06T21:07:42.781Z,16.70
2023-03-06T21:10:12.069Z,17.42
2023-03-06T21:12:38.892Z,16.88
2023-03-06T21:15:06.505Z,17.35
2023-03-06T21:17:34.162Z,17.38
2023-03-06T21:20:01.032Z,16.83
2023-03-06T21:22:30.260Z,17.23
2023-03-06T21:24:58.584Z,16.42
2023-03-06T21:27:26.385Z,17.30
2023-03-06T21:29:54.009Z,15.82
2023-03-06T21:32:22.085Z,15.00
2023-03-06T21:34:49.199Z,14.60
2023-03-06T21:37:17.069Z,15.30
2023-03-06T21:39:44.585Z,15.68
2023-03-06T21:42:12.043Z,15.57
2023-03-06T21:44:39.732Z,15.93
2023-03-06T21:47:06.671Z,15.52
2023-03-06T21:49:33.285Z,18.15
2023-03-06T21:51:59.926Z,16.30
2023-03-06T21:54:27.117Z,20.27
2023-03-06T21:56:53.773Z,20.15
2023-03-06T21:59:20.374Z,16.63
2023-03-06T22:01:47.639Z,16.10
2023-03-06T22:04:14.506Z,14.88
2023-03-06T22:06:41.235Z,16.40
2023-03-06T22:09:08.562Z,14.30
2023-03-06T22:11:37.281Z,13.57
2023-03-06T22:14:05.680Z,14.40
2023-03-06T22:16:32.794Z,14.25
2023-03-06T22:19:00.596Z,14.35
2023-03-06T22:21:27.292Z,13.82
2023-03-06T22:23:57.779Z,14.70
2023-03-06T22:26:26.076Z,14.00
2023-03-06T22:28:53.324Z,14.82
2023-03-06T22:31:25.736Z,13.70
2023-03-06T22:33:53.722Z,13.82
2023-03-06T22:36:21.094Z,15.20
2023-03-06T22:38:48.706Z,14.60
2023-03-06T22:41:17.294Z,13.75
2023-03-06T22:43:44.005Z,14.77
2023-03-06T22:46:13.587Z,15.68
2023-03-06T22:48:40.879Z,14.85
2023-03-06T22:51:09.388Z,15.32
2023-03-06T22:53:36.779Z,14.27
2023-03-06T22:56:05.333Z,17.05
2023-03-06T22:58:36.932Z,15.07
2023-03-06T23:01:04.912Z,14.70
2023-03-06T23:03:31.626Z,14.15
2023-03-06T23:05:58.323Z,15.27
2023-03-06T23:08:24.968Z,15.25
2023-03-06T23:10:51.569Z,15.88
2023-03-06T23:13:18.160Z,14.60
2023-03-06T23:15:44.750Z,16.10
2023-03-06T23:18:11.351Z,15.13
2023-03-06T23:20:42.577Z,14.23
2023-03-06T23:23:09.822Z,16.08
2023-03-06T23:25:36.861Z,15.98
2023-03-06T23:28:03.696Z,14.85
2023-03-06T23:30:30.314Z,15.30
2023-03-06T23:32:57.051Z,14.27
2023-03-06T23:35:23.631Z,14.73
2023-03-06T23:37:50.323Z,13.90
2023-03-06T23:40:17.149Z,13.73
2023-03-06T23:42:43.745Z,14.13
2023-03-06T23:45:10.908Z,13.48
2023-03-06T23:47:37.522Z,13.25
2023-03-06T23:50:04.457Z,14.50
2023-03-06T23:52:31.118Z,13.30
2023-03-06T23:54:57.710Z,13.20
2023-03-06T23:57:24.314Z,12.80
2023-03-06T23:59:50.938Z,12.70
